createdAt,value
2023-03-01T00:01:33.177Z,5.27
2023-03-01T00:04:01.298Z,5.27
2023-03-01T00:06:29.532Z,5.21
2023-03-01T00:08:57.353Z,5.25
2023-03-01T00:11:30.962Z,5.25
2023-03-01T00:14:02.136Z,5.22
2023-03-01T00:16:34.832Z,5.22
2023-03-01T00:19:02.236Z,5.20
2023-03-01T00:21:29.955Z,5.20
2023-03-01T00:23:57.264Z,5.22
2023-03-01T00:26:26.882Z,5.18
2023-03-01T00:28:54.751Z,5.18
2023-03-01T00:31:28.960Z,5.11
2023-03-01T00:34:02.646Z,5.12
2023-03-01T00:36:33.750Z,5.07
2023-03-01T00:39:01.317Z,5.07
2023-03-01T00:41:28.506Z,5.06
2023-03-01T00:43:55.838Z,5.04
2023-03-01T00:46:26.544Z,5.04
2023-03-01T00:48:54.027Z,5.02
2023-03-01T00:51:24.898Z,4.98
2023-03-01T00:53:57.899Z,4.94
2023-03-01T00:56:25.882Z,4.99
2023-03-01T00:58:52.739Z,4.98
2023-03-01T01:01:24.111Z,4.99
2023-03-01T01:04:01.335Z,5.00
2023-03-01T01:06:33.404Z,4.96
2023-03-01T01:09:01.285Z,4.96
2023-03-01T01:11:30.640Z,4.97
2023-03-01T01:13:58.884Z,4.97
2023-03-01T01:16:28.710Z,4.92
2023-03-01T01:18:57.907Z,4.96
2023-03-01T01:21:26.297Z,4.97
2023-03-01T01:23:53.730Z,4.95
2023-03-01T01:26:25.862Z,4.99
2023-03-01T01:28:53.321Z,4.94
2023-03-01T01:31:21.383Z,4.93
2023-03-01T01:33:48.429Z,4.94
2023-03-01T01:36:15.606Z,4.92
2023-03-01T01:38:43.545Z,4.89
2023-03-01T01:41:15.040Z,4.92
2023-03-01T01:44:09.801Z,4.91
2023-03-01T01:46:40.547Z,4.92
2023-03-01T01:49:33.672Z,4.92
2023-03-01T01:52:10.376Z,4.94
2023-03-01T01:54:48.035Z,4.91
2023-03-01T01:57:22.035Z,4.93
2023-03-01T01:59:54.522Z,4.86
2023-03-01T02:02:22.217Z,4.89
2023-03-01T02:04:51.300Z,4.92
2023-03-01T02:07:26.050Z,4.88
2023-03-01T02:09:53.965Z,4.91
2023-03-01T02:12:25.455Z,4.84
2023-03-01T02:14:52.304Z,4.87
2023-03-01T02:17:20.677Z,4.83
2023-03-01T02:19:50.510Z,4.83
2023-03-01T02:22:30.357Z,4.80
2023-03-01T02:25:19.727Z,4.72
2023-03-01T02:28:11.208Z,4.73
2023-03-01T02:30:38.347Z,4.72
2023-03-01T02:33:05.951Z,4.68
2023-03-01T02:35:38.419Z,4.71
2023-03-01T02:38:09.366Z,4.71
2023-03-01T02:40:39.364Z,4.66
2023-03-01T02:43:11.498Z,4.64
2023-03-01T02:45:38.282Z,4.63
2023-03-01T02:48:05.143Z,4.64
2023-03-01T02:50:31.965Z,4.65
2023-03-01T02:53:19.786Z,4.64
2023-03-01T02:55:46.735Z,4.63
2023-03-01T02:58:13.774Z,4.61
2023-03-01T03:00:48.117Z,4.62
2023-03-01T03:03:20.773Z,4.59
2023-03-01T03:05:48.801Z,4.62
2023-03-01T03:08:25.445Z,4.59
2023-03-01T03:10:52.620Z,4.60
2023-03-01T03:13:20.411Z,4.60
2023-03-01T03:15:47.228Z,4.59
2023-03-01T03:18:18.018Z,4.59
2023-03-01T03:20:45.881Z,4.61
2023-03-01T03:23:14.209Z,4.61
2023-03-01T03:25:41.311Z,4.65
2023-03-01T03:28:11.518Z,4.66
2023-03-01T03:30:42.007Z,4.60
2023-03-01T03:33:13.295Z,4.62
2023-03-01T03:35:51.453Z,4.65
2023-03-01T03:38:23.226Z,4.66
2023-03-01T03:41:05.817Z,4.65
2023-03-01T03:43:36.697Z,4.61
2023-03-01T03:46:07.807Z,4.66
2023-03-01T03:48:46.158Z,4.67
2023-03-01T03:51:16.418Z,4.66
2023-03-01T03:53:44.696Z,4.69
2023-03-01T03:56:12.308Z,4.69
2023-03-01T03:58:39.381Z,4.67
2023-03-01T04:01:06.724Z,4.71
2023-03-01T04:03:36.233Z,4.71
2023-03-01T04:06:05.286Z,4.71
2023-03-01T04:08:33.042Z,4.69
2023-03-01T04:11:23.041Z,4.64
2023-03-01T04:13:50.040Z,4.61
2023-03-01T04:16:17.357Z,4.59
2023-03-01T04:18:44.827Z,4.58
2023-03-01T04:21:12.433Z,4.56
2023-03-01T04:23:39.685Z,4.58
2023-03-01T04:26:06.600Z,4.60
2023-03-01T04:28:38.227Z,4.64
2023-03-01T04:31:18.398Z,4.67
2023-03-01T04:33:55.193Z,4.63
2023-03-01T04:36:26.520Z,4.61
2023-03-01T04:38:53.870Z,4.51
2023-03-01T04:41:23.581Z,4.54
2023-03-01T04:43:51.145Z,4.51
2023-03-01T04:46:21.048Z,4.59
2023-03-01T04:48:48.636Z,4.52
2023-03-01T04:51:19.590Z,4.58
2023-03-01T04:53:47.013Z,4.60
2023-03-01T04:56:17.234Z,4.66
2023-03-01T04:58:44.209Z,4.59
2023-03-01T05:01:16.563Z,4.63
2023-03-01T05:03:50.177Z,4.62
2023-03-01T05:06:20.019Z,4.66
2023-03-01T05:08:47.022Z,4.64
2023-03-01T05:11:14.326Z,4.66
2023-03-01T05:13:41.860Z,4.62
2023-03-01T05:16:13.536Z,4.67
2023-03-01T05:18:42.258Z,4.67
2023-03-01T05:21:18.440Z,4.67
2023-03-01T05:23:46.421Z,4.65
2023-03-01T05:26:27.419Z,4.61
2023-03-01T05:29:00.257Z,4.71
2023-03-01T05:31:27.789Z,4.68
2023-03-01T05:33:54.820Z,4.70
2023-03-01T05:36:22.002Z,4.72
2023-03-01T05:38:49.146Z,4.68
2023-03-01T05:41:18.169Z,4.73
2023-03-01T05:43:46.321Z,4.71
2023-03-01T05:46:14.573Z,4.71
2023-03-01T05:48:41.533Z,4.71
2023-03-01T05:51:08.405Z,4.69
2023-03-01T05:53:35.226Z,4.64
2023-03-01T05:56:05.545Z,4.61
2023-03-01T05:58:32.844Z,4.56
2023-03-01T06:00:59.657Z,4.54
2023-03-01T06:03:26.551Z,4.47
2023-03-01T06:05:58.045Z,4.45
2023-03-01T06:08:27.842Z,4.47
2023-03-01T06:10:54.803Z,4.44
2023-03-01T06:13:21.919Z,4.49
2023-03-01T06:15:48.866Z,4.47
2023-03-01T06:18:15.753Z,4.49
2023-03-01T06:20:42.922Z,4.50
2023-03-01T06:23:10.726Z,4.53
2023-03-01T06:25:38.761Z,4.49
2023-03-01T06:28:05.734Z,4.51
2023-03-01T06:30:33.335Z,4.49
2023-03-01T06:33:02.569Z,4.56
2023-03-01T06:35:33.203Z,4.54
2023-03-01T06:38:03.128Z,4.56
2023-03-01T06:40:32.352Z,4.52
2023-03-01T06:42:59.850Z,4.56
2023-03-01T06:45:26.736Z,4.57
2023-03-01T06:47:53.594Z,4.60
2023-03-01T06:50:20.571Z,4.57
2023-03-01T06:55:14.758Z,4.60
2023-03-01T06:57:41.731Z,4.56
2023-03-01T07:00:09.709Z,4.56
2023-03-01T07:02:36.582Z,4.58
2023-03-01T07:05:03.805Z,4.56
2023-03-01T07:07:30.944Z,4.50
2023-03-01T07:09:57.806Z,4.44
2023-03-01T07:12:24.962Z,4.42
2023-03-01T07:14:51.770Z,4.38
2023-03-01T07:17:19.946Z,4.31
2023-03-01T07:19:46.871Z,4.33
2023-03-01T07:22:13.721Z,4.31
2023-03-01T07:24:40.533Z,4.30
2023-03-01T07:27:07.531Z,4.31
2023-03-01T07:29:34.633Z,4.35
2023-03-01T07:32:01.645Z,4.32
2023-03-01T07:34:28.422Z,4.37
2023-03-01T07:36:55.332Z,4.39
2023-03-01T07:39:24.300Z,4.48
2023-03-01T07:41:52.069Z,4.57
2023-03-01T07:44:18.992Z,4.53
2023-03-01T07:46:45.856Z,4.57
2023-03-01T07:49:12.674Z,4.58
2023-03-01T07:51:39.728Z,4.58
2023-03-01T07:54:06.778Z,4.62
2023-03-01T07:56:33.923Z,4.65
2023-03-01T07:59:01.117Z,4.66
2023-03-01T08:01:28.011Z,4.75
2023-03-01T08:03:54.906Z,4.69
2023-03-01T08:06:21.767Z,4.76
2023-03-01T08:08:48.644Z,4.74
2023-03-01T08:11:17.035Z,4.78
2023-03-01T08:13:45.070Z,4.86
2023-03-01T08:16:15.694Z,4.91
2023-03-01T08:18:44.099Z,4.95
2023-03-01T08:21:14.421Z,5.02
2023-03-01T08:23:41.921Z,5.06
2023-03-01T08:26:21.129Z,5.08
2023-03-01T08:28:50.233Z,5.16
2023-03-01T08:31:27.833Z,5.15
2023-03-01T08:33:58.260Z,5.17
2023-03-01T08:36:32.247Z,5.19
2023-03-01T08:39:01.048Z,5.26
2023-03-01T08:41:28.768Z,5.28
2023-03-01T08:44:00.161Z,5.35
2023-03-01T08:46:33.390Z,5.37
2023-03-01T08:49:01.236Z,5.38
2023-03-01T08:51:28.140Z,5.37
2023-03-01T08:53:55.221Z,5.40
2023-03-01T08:56:22.289Z,5.40
2023-03-01T08:58:50.618Z,5.39
2023-03-01T09:01:20.259Z,5.39
2023-03-01T09:03:48.305Z,5.40
2023-03-01T09:06:17.113Z,5.44
2023-03-01T09:08:47.623Z,5.41
2023-03-01T09:11:20.313Z,5.38
2023-03-01T09:13:48.769Z,5.40
2023-03-01T09:16:18.870Z,5.51
2023-03-01T09:18:47.052Z,5.56
2023-03-01T09:21:22.597Z,5.71
2023-03-01T09:23:51.889Z,5.77
2023-03-01T09:26:23.024Z,5.86
2023-03-01T09:28:53.993Z,5.89
2023-03-01T09:31:23.071Z,5.94
2023-03-01T09:33:53.516Z,5.98
2023-03-01T09:36:24.023Z,5.97
2023-03-01T09:38:53.206Z,6.04
2023-03-01T09:41:51.837Z,6.03
2023-03-01T09:44:52.297Z,6.05
2023-03-01T09:47:36.198Z,6.04
2023-03-01T09:50:08.121Z,5.97
2023-03-01T09:52:44.770Z,5.96
2023-03-01T09:55:16.876Z,6.05
2023-03-01T09:58:34.076Z,6.12
2023-03-01T10:01:17.466Z,6.15
2023-03-01T10:04:01.271Z,6.22
2023-03-01T10:06:34.875Z,6.25
2023-03-01T10:09:19.140Z,6.31
2023-03-01T10:11:51.830Z,6.38
2023-03-01T10:14:38.024Z,6.43
2023-03-01T10:17:40.079Z,6.56
2023-03-01T10:20:24.203Z,6.66
2023-03-01T10:22:53.709Z,6.71
2023-03-01T10:26:01.944Z,6.72
2023-03-01T10:29:06.398Z,6.62
2023-03-01T10:31:52.348Z,6.64
2023-03-01T10:34:24.244Z,6.69
2023-03-01T10:36:54.562Z,6.67
2023-03-01T10:39:25.513Z,6.67
2023-03-01T10:42:04.664Z,6.70
2023-03-01T10:44:48.228Z,6.72
2023-03-01T10:47:25.814Z,6.69
2023-03-01T10:49:56.772Z,6.68
2023-03-01T10:52:36.750Z,6.67
2023-03-01T10:55:29.262Z,6.63
2023-03-01T10:58:20.934Z,6.60
2023-03-01T11:00:56.623Z,6.64
2023-03-01T11:03:32.585Z,6.67
2023-03-01T11:06:23.110Z,6.74
2023-03-01T11:08:51.769Z,6.86
2023-03-01T11:11:35.101Z,6.92
2023-03-01T11:14:38.366Z,6.97
2023-03-01T11:17:24.891Z,6.92
2023-03-01T11:20:13.545Z,6.96
2023-03-01T11:22:52.896Z,6.95
2023-03-01T11:25:26.013Z,6.97
2023-03-01T11:27:54.718Z,6.87
2023-03-01T11:30:25.690Z,6.90
2023-03-01T11:33:07.387Z,6.82
2023-03-01T11:35:39.412Z,6.77
2023-03-01T11:38:26.999Z,6.81
2023-03-01T11:41:14.701Z,6.89
2023-03-01T11:43:54.376Z,7.02
2023-03-01T11:46:33.354Z,7.09
2023-03-01T11:49:25.920Z,7.25
2023-03-01T11:52:24.639Z,7.27
2023-03-01T11:55:21.815Z,7.28
2023-03-01T11:58:33.171Z,7.19
2023-03-01T12:01:14.381Z,7.14
2023-03-01T12:04:24.447Z,7.15
2023-03-01T12:07:05.185Z,7.25
2023-03-01T12:10:29.114Z,7.28
2023-03-01T12:13:17.241Z,7.19
2023-03-01T12:16:39.617Z,7.23
2023-03-01T12:19:41.388Z,7.14
2023-03-01T12:22:28.350Z,7.12
2023-03-01T12:25:14.520Z,7.14
2023-03-01T12:28:10.319Z,7.11
2023-03-01T12:31:00.151Z,7.04
2023-03-01T12:33:46.553Z,7.00
2023-03-01T12:36:54.460Z,6.93
2023-03-01T12:40:02.677Z,6.90
2023-03-01T12:43:31.502Z,6.89
2023-03-01T12:46:22.747Z,6.91
2023-03-01T12:49:10.776Z,6.91
2023-03-01T12:51:39.929Z,6.99
2023-03-01T12:54:17.762Z,6.96
2023-03-01T12:56:53.762Z,7.01
2023-03-01T12:59:32.910Z,7.02
2023-03-01T13:02:17.666Z,7.07
2023-03-01T13:05:24.990Z,7.06
2023-03-01T13:08:29.508Z,7.13
2023-03-01T13:11:17.938Z,7.09
2023-03-01T13:13:44.802Z,7.13
2023-03-01T13:16:30.245Z,7.11
2023-03-01T13:19:16.979Z,7.13
2023-03-01T13:21:49.683Z,7.20
2023-03-01T13:24:38.607Z,7.20
2023-03-01T13:27:08.467Z,7.24
2023-03-01T13:30:04.468Z,7.14
2023-03-01T13:32:44.705Z,7.13
2023-03-01T13:35:11.946Z,7.10
2023-03-01T13:37:39.580Z,7.13
2023-03-01T13:40:26.520Z,7.04
2023-03-01T13:43:05.204Z,7.03
2023-03-01T13:45:44.361Z,6.98
2023-03-01T13:48:30.986Z,6.99
2023-03-01T13:51:07.032Z,7.05
2023-03-01T13:53:49.073Z,7.13
2023-03-01T13:56:37.727Z,7.16
2023-03-01T13:59:13.991Z,7.29
2023-03-01T14:01:43.668Z,7.37
2023-03-01T14:04:32.392Z,7.47
2023-03-01T14:07:21.825Z,7.54
2023-03-01T14:09:55.441Z,7.57
2023-03-01T14:13:15.903Z,7.77
2023-03-01T14:16:25.289Z,7.82
2023-03-01T14:19:04.871Z,7.96
2023-03-01T14:21:36.441Z,7.99
2023-03-01T14:24:03.733Z,7.96
2023-03-01T14:26:33.614Z,7.88
2023-03-01T14:29:00.547Z,7.74
2023-03-01T14:31:52.186Z,7.65
2023-03-01T14:34:23.563Z,7.56
2023-03-01T14:36:50.844Z,7.48
2023-03-01T14:39:35.784Z,7.42
2023-03-01T14:42:14.890Z,7.43
2023-03-01T14:44:45.231Z,7.44
2023-03-01T14:47:41.924Z,7.44
2023-03-01T14:50:29.568Z,7.52
2023-03-01T14:53:01.397Z,7.58
2023-03-01T14:55:38.650Z,7.56
2023-03-01T14:58:11.406Z,7.64
2023-03-01T15:00:38.874Z,7.71
2023-03-01T15:03:33.984Z,7.75
2023-03-01T15:06:07.339Z,7.72
2023-03-01T15:08:35.466Z,7.71
2023-03-01T15:11:26.056Z,7.77
2023-03-01T15:13:53.891Z,7.72
2023-03-01T15:16:35.737Z,7.81
2023-03-01T15:19:07.366Z,7.79
2023-03-01T15:21:40.119Z,7.87
2023-03-01T15:24:21.484Z,7.89
2023-03-01T15:27:07.173Z,7.88
2023-03-01T15:29:41.787Z,7.90
2023-03-01T15:32:35.599Z,7.76
2023-03-01T15:35:49.327Z,7.87
2023-03-01T15:38:55.439Z,7.80
2023-03-01T15:41:32.289Z,7.73
2023-03-01T15:44:01.679Z,7.67
2023-03-01T15:46:34.010Z,7.63
2023-03-01T15:49:04.856Z,7.54
2023-03-01T15:51:38.077Z,7.50
2023-03-01T15:54:20.173Z,7.52
2023-03-01T15:56:47.325Z,7.47
2023-03-01T15:59:15.278Z,7.52
2023-03-01T16:01:43.304Z,7.46
2023-03-01T16:04:21.850Z,7.40
2023-03-01T16:06:55.285Z,7.32
2023-03-01T16:09:27.001Z,7.19
2023-03-01T16:11:55.265Z,7.14
2023-03-01T16:14:22.779Z,7.06
2023-03-01T16:16:50.328Z,7.00
2023-03-01T16:19:17.382Z,6.90
2023-03-01T16:21:47.815Z,6.87
2023-03-01T16:24:16.514Z,6.83
2023-03-01T16:26:43.375Z,6.86
2023-03-01T16:29:10.592Z,6.86
2023-03-01T16:31:37.680Z,6.86
2023-03-01T16:34:04.792Z,6.85
2023-03-01T16:36:31.655Z,6.86
2023-03-01T16:39:01.991Z,6.90
2023-03-01T16:41:29.478Z,6.88
2023-03-01T16:43:56.914Z,6.85
2023-03-01T16:46:27.408Z,6.85
2023-03-01T16:48:55.004Z,6.87
2023-03-01T16:51:23.470Z,6.82
2023-03-01T16:53:51.324Z,6.86
2023-03-01T16:56:19.273Z,6.78
2023-03-01T16:58:46.772Z,6.75
2023-03-01T17:01:18.616Z,6.77
2023-03-01T17:03:47.650Z,6.75
2023-03-01T17:06:18.516Z,6.71
2023-03-01T17:08:45.497Z,6.76
2023-03-01T17:11:18.777Z,6.75
2023-03-01T17:13:46.659Z,6.75
2023-03-01T17:16:20.705Z,6.73
2023-03-01T17:18:48.722Z,6.68
2023-03-01T17:21:16.378Z,6.61
2023-03-01T17:23:46.973Z,6.60
2023-03-01T17:26:14.085Z,6.54
2023-03-01T17:28:41.317Z,6.57
2023-03-01T17:31:08.655Z,6.58
2023-03-01T17:33:37.240Z,6.54
2023-03-01T17:36:04.514Z,6.54
2023-03-01T17:38:31.593Z,6.51
2023-03-01T17:41:01.620Z,6.48
2023-03-01T17:43:29.175Z,6.49
2023-03-01T17:45:57.212Z,6.50
2023-03-01T17:48:24.349Z,6.48
2023-03-01T17:50:51.339Z,6.38
2023-03-01T17:53:18.430Z,6.40
2023-03-01T17:55:46.025Z,6.43
2023-03-01T17:58:14.702Z,6.40
2023-03-01T18:00:42.148Z,6.41
2023-03-01T18:03:08.984Z,6.31
2023-03-01T18:05:40.187Z,6.39
2023-03-01T18:08:07.075Z,6.37
2023-03-01T18:10:36.611Z,6.36
2023-03-01T18:13:05.598Z,6.38
2023-03-01T18:15:34.072Z,6.37
2023-03-01T18:18:00.936Z,6.36
2023-03-01T18:20:28.038Z,6.37
2023-03-01T18:22:54.830Z,6.35
2023-03-01T18:25:22.304Z,6.35
2023-03-01T18:27:49.283Z,6.30
2023-03-01T18:30:16.601Z,6.24
2023-03-01T18:32:45.137Z,6.17
2023-03-01T18:35:12.168Z,6.11
2023-03-01T18:37:39.006Z,5.99
2023-03-01T18:40:08.474Z,5.88
2023-03-01T18:42:35.373Z,5.83
2023-03-01T18:45:02.230Z,5.77
2023-03-01T18:47:29.027Z,5.68
2023-03-01T18:49:55.836Z,5.62
2023-03-01T18:52:22.666Z,5.60
2023-03-01T18:54:49.478Z,5.59
2023-03-01T18:57:16.419Z,5.56
2023-03-01T18:59:43.192Z,5.50
2023-03-01T19:02:12.746Z,5.45
2023-03-01T19:04:40.770Z,5.44
2023-03-01T19:07:08.220Z,5.43
2023-03-01T19:09:35.336Z,5.35
2023-03-01T19:12:03.740Z,5.37
2023-03-01T19:14:31.935Z,5.35
2023-03-01T19:17:01.391Z,5.35
2023-03-01T19:19:29.831Z,5.34
2023-03-01T19:22:05.648Z,5.37
2023-03-01T19:24:38.289Z,5.36
2023-03-01T19:27:07.782Z,5.35
2023-03-01T19:29:36.450Z,5.38
2023-03-01T19:32:06.005Z,5.39
2023-03-01T19:34:34.959Z,5.47
2023-03-01T19:37:03.384Z,5.44
2023-03-01T19:39:32.967Z,5.45
2023-03-01T19:42:02.026Z,5.43
2023-03-01T19:44:30.236Z,5.46
2023-03-01T19:46:58.211Z,5.41
2023-03-01T19:49:28.105Z,5.37
2023-03-01T19:51:57.224Z,5.37
2023-03-01T19:54:25.585Z,5.36
2023-03-01T19:56:53.354Z,5.36
2023-03-01T19:59:25.452Z,5.36
2023-03-01T20:01:53.928Z,5.38
2023-03-01T20:04:21.377Z,5.36
2023-03-01T20:06:49.334Z,5.39
2023-03-01T20:09:21.825Z,5.40
2023-03-01T20:11:51.679Z,5.41
2023-03-01T20:14:22.489Z,5.44
2023-03-01T20:16:51.617Z,5.41
2023-03-01T20:19:19.250Z,5.42
2023-03-01T20:21:46.175Z,5.43
2023-03-01T20:24:14.115Z,5.44
2023-03-01T20:26:41.303Z,5.45
2023-03-01T20:29:09.179Z,5.44
2023-03-01T20:31:36.214Z,5.39
2023-03-01T20:34:04.817Z,5.42
2023-03-01T20:36:32.261Z,5.42
2023-03-01T20:38:59.315Z,5.45
2023-03-01T20:41:27.073Z,5.48
2023-03-01T20:43:56.702Z,5.50
2023-03-01T20:46:26.975Z,5.43
2023-03-01T20:48:54.537Z,5.41
2023-03-01T20:51:21.880Z,5.41
2023-03-01T20:53:49.534Z,5.42
2023-03-01T20:56:18.320Z,5.42
2023-03-01T20:58:45.691Z,5.42
2023-03-01T21:01:18.928Z,5.41
2023-03-01T21:03:46.158Z,5.38
2023-03-01T21:06:13.894Z,5.38
2023-03-01T21:08:40.931Z,5.34
2023-03-01T21:11:08.408Z,5.28
2023-03-01T21:13:36.593Z,5.23
2023-03-01T21:16:13.786Z,5.20
2023-03-01T21:18:42.423Z,5.17
2023-03-01T21:21:18.938Z,5.15
2023-03-01T21:23:47.349Z,5.15
2023-03-01T21:26:19.364Z,5.08
2023-03-01T21:28:47.158Z,5.10
2023-03-01T21:31:24.173Z,5.12
2023-03-01T21:33:54.179Z,5.06
2023-03-01T21:36:23.620Z,5.00
2023-03-01T21:38:52.594Z,5.06
2023-03-01T21:41:26.485Z,5.01
2023-03-01T21:43:57.715Z,4.99
2023-03-01T21:46:27.015Z,4.94
2023-03-01T21:48:55.398Z,4.91
2023-03-01T21:51:26.047Z,4.86
2023-03-01T21:53:54.842Z,4.88
2023-03-01T21:56:28.048Z,4.84
2023-03-01T21:58:55.305Z,4.79
2023-03-01T22:01:27.352Z,4.78
2023-03-01T22:03:55.982Z,4.76
2023-03-01T22:06:28.329Z,4.74
2023-03-01T22:09:06.152Z,4.74
2023-03-01T22:11:37.084Z,4.70
2023-03-01T22:14:05.099Z,4.73
2023-03-01T22:16:36.457Z,4.75
2023-03-01T22:19:06.542Z,4.74
2023-03-01T22:21:34.123Z,4.74
2023-03-01T22:24:01.943Z,4.77
2023-03-01T22:26:36.836Z,4.78
2023-03-01T22:29:06.806Z,4.76
2023-03-01T22:31:34.655Z,4.83
2023-03-01T22:34:02.089Z,4.87
2023-03-01T22:36:30.746Z,4.83
2023-03-01T22:39:01.974Z,4.91
2023-03-01T22:41:32.699Z,4.89
2023-03-01T22:43:59.646Z,4.87
2023-03-01T22:46:27.840Z,4.92
2023-03-01T22:48:55.352Z,4.92
2023-03-01T22:51:32.367Z,4.94
2023-03-01T22:53:59.680Z,4.95
2023-03-01T22:56:33.566Z,4.92
2023-03-01T22:59:03.937Z,4.94
2023-03-01T23:01:31.980Z,4.98
2023-03-01T23:03:59.184Z,5.01
2023-03-01T23:06:26.260Z,4.97
2023-03-01T23:08:57.222Z,4.99
2023-03-01T23:11:26.357Z,5.02
2023-03-01T23:13:55.037Z,5.01
2023-03-01T23:16:26.468Z,5.03
2023-03-01T23:18:55.840Z,5.03
2023-03-01T23:21:23.237Z,5.00
2023-03-01T23:23:50.568Z,4.96
2023-03-01T23:26:18.891Z,4.97
2023-03-01T23:28:48.418Z,4.98
2023-03-01T23:31:16.151Z,4.98
2023-03-01T23:33:45.417Z,5.03
2023-03-01T23:36:17.816Z,5.01
2023-03-01T23:38:49.967Z,5.02
2023-03-01T23:41:22.522Z,5.01
2023-03-01T23:43:53.145Z,4.95
2023-03-01T23:46:23.199Z,4.93
2023-03-01T23:48:50.493Z,4.94
2023-03-01T23:51:19.903Z,4.93
2023-03-01T23:53:57.760Z,4.95
2023-03-01T23:56:34.281Z,4.92
2023-03-01T23:59:04.944Z,4.94
